createdAt,value
2018-09-10T00:02:00.618Z,100339.23
2018-09-10T00:04:31.772Z,100340.94
2018-09-10T00:07:03.800Z,100350.30
2018-09-10T00:09:34.875Z,100353.70
2018-09-10T00:12:06.063Z,100345.09
2018-09-10T00:14:38.936Z,100353.97
2018-09-10T00:17:10.051Z,100342.24
2018-09-10T00:19:40.534Z,100346.36
2018-09-10T00:22:11.669Z,100350.61
2018-09-10T00:24:42.759Z,100334.48
2018-09-10T00:27:14.281Z,100343.24
2018-09-10T00:29:46.853Z,100339.30
2018-09-10T00:32:17.161Z,100343.58
2018-09-10T00:34:48.307Z,100346.38
2018-09-10T00:37:19.448Z,100346.89
2018-09-10T00:39:50.554Z,100346.58
2018-09-10T00:42:30.325Z,100341.39
2018-09-10T00:45:06.285Z,100346.80
2018-09-10T00:47:37.595Z,100346.58
2018-09-10T00:50:08.699Z,100353.84
2018-09-10T00:52:39.895Z,100349.95
2018-09-10T00:55:10.995Z,100350.86
2018-09-10T00:57:41.292Z,100350.28
2018-09-10T01:00:15.534Z,100348.39
2018-09-10T01:02:46.662Z,100348.64
2018-09-10T01:05:18.524Z,100351.64
2018-09-10T01:07:49.155Z,100359.56
2018-09-10T01:10:20.275Z,100347.92
2018-09-10T01:12:50.610Z,100344.84
2018-09-10T01:15:23.044Z,100348.58
2018-09-10T01:17:54.585Z,100352.02
2018-09-10T01:20:24.878Z,100355.52
2018-09-10T01:22:56.024Z,100323.88
2018-09-10T01:25:26.286Z,100351.80
2018-09-10T01:27:56.690Z,100353.05
2018-09-10T01:30:34.253Z,100346.30
2018-09-10T01:33:06.472Z,100356.09
2018-09-10T01:35:37.723Z,100353.09
2018-09-10T01:38:11.860Z,100345.63
2018-09-10T01:40:43.702Z,100355.28
2018-09-10T01:43:15.787Z,100348.95
2018-09-10T01:45:47.923Z,100348.33
2018-09-10T01:48:19.130Z,100340.93
2018-09-10T01:50:50.246Z,100342.69
2018-09-10T01:53:21.155Z,100351.31
2018-09-10T01:55:51.386Z,100359.21
2018-09-10T01:58:22.586Z,100340.61
2018-09-10T02:00:53.146Z,100367.10
2018-09-10T02:03:23.689Z,100359.62
2018-09-10T02:05:54.955Z,100359.52
2018-09-10T02:08:26.042Z,100354.02
2018-09-10T02:10:56.388Z,100354.01
2018-09-10T02:13:27.242Z,100350.08
2018-09-10T02:15:58.326Z,100346.13
2018-09-10T02:18:29.554Z,100357.88
2018-09-10T02:20:59.796Z,100360.98
2018-09-10T02:23:30.215Z,100362.11
2018-09-10T02:26:01.361Z,100363.17
2018-09-10T02:28:31.643Z,100367.33
2018-09-10T02:31:03.658Z,100362.76
2018-09-10T02:33:33.980Z,100353.73
2018-09-10T02:36:04.671Z,100358.20
2018-09-10T02:38:35.047Z,100341.14
2018-09-10T02:41:06.507Z,100357.88
2018-09-10T02:43:37.089Z,100355.69
2018-09-10T02:46:07.614Z,100360.77
2018-09-10T02:48:38.868Z,100356.53
2018-09-10T02:51:09.159Z,100350.07
2018-09-10T02:53:40.243Z,100364.33
2018-09-10T02:56:10.502Z,100358.83
2018-09-10T02:58:40.947Z,100359.02
2018-09-10T03:01:11.191Z,100368.09
2018-09-10T03:03:42.101Z,100369.44
2018-09-10T03:06:13.492Z,100375.23
2018-09-10T03:08:44.714Z,100372.42
2018-09-10T03:11:15.039Z,100382.81
2018-09-10T03:13:45.359Z,100375.00
2018-09-10T03:16:16.610Z,100368.09
2018-09-10T03:18:46.798Z,100357.85
2018-09-10T03:21:17.103Z,100372.20
2018-09-10T03:23:47.464Z,100356.50
2018-09-10T03:26:18.575Z,100356.94
2018-09-10T03:28:49.737Z,100364.62
2018-09-10T03:31:23.243Z,100364.62
2018-09-10T03:33:54.332Z,100361.40
2018-09-10T03:36:24.599Z,100363.27
2018-09-10T03:38:54.788Z,100361.38
2018-09-10T03:41:26.033Z,100347.79
2018-09-10T03:43:56.291Z,100344.32
2018-09-10T03:46:26.741Z,100346.08
2018-09-10T03:48:57.808Z,100355.34
2018-09-10T03:51:28.879Z,100355.85
2018-09-10T03:53:59.091Z,100348.57
2018-09-10T03:56:30.382Z,100349.80
2018-09-10T03:59:00.596Z,100345.80
2018-09-10T04:01:30.866Z,100340.05
2018-09-10T04:04:01.212Z,100333.23
2018-09-10T04:06:32.432Z,100334.66
2018-09-10T04:09:02.700Z,100344.53
2018-09-10T04:11:32.980Z,100336.73
2018-09-10T04:14:05.366Z,100335.90
2018-09-10T04:16:37.423Z,100341.65
2018-09-10T04:19:07.829Z,100337.84
2018-09-10T04:21:39.005Z,100337.27
2018-09-10T04:24:09.328Z,100342.32
2018-09-10T04:26:40.532Z,100341.41
2018-09-10T04:29:10.827Z,100343.59
2018-09-10T04:31:41.049Z,100345.78
2018-09-10T04:34:11.282Z,100345.05
2018-09-10T04:36:42.541Z,100349.74
2018-09-10T04:39:13.100Z,100340.49
2018-09-10T04:41:44.764Z,100344.97
2018-09-10T04:44:14.107Z,100348.69
2018-09-10T04:46:44.496Z,100348.61
2018-09-10T04:49:14.640Z,100351.88
2018-09-10T04:51:44.834Z,100352.59
2018-09-10T04:54:15.863Z,100362.48
2018-09-10T04:56:46.111Z,100365.81
2018-09-10T04:59:16.524Z,100360.72
2018-09-10T05:01:45.973Z,100374.54
2018-09-10T05:04:16.183Z,100369.56
2018-09-10T05:06:46.444Z,100370.84
2018-09-10T05:09:16.660Z,100379.25
2018-09-10T05:11:47.079Z,100377.76
2018-09-10T05:14:21.283Z,100383.30
2018-09-10T05:16:52.174Z,100377.70
2018-09-10T05:19:22.776Z,100384.33
2018-09-10T05:21:53.101Z,100388.50
2018-09-10T05:24:23.448Z,100391.93
2018-09-10T05:26:54.352Z,100394.13
2018-09-10T05:29:23.704Z,100391.97
2018-09-10T05:31:54.030Z,100394.98
2018-09-10T05:34:23.394Z,100400.02
2018-09-10T05:36:53.496Z,100402.16
2018-09-10T05:39:23.628Z,100407.23
2018-09-10T05:41:56.026Z,100409.63
2018-09-10T05:44:26.389Z,100409.66
2018-09-10T05:46:57.211Z,100407.45
2018-09-10T05:49:27.468Z,100409.66
2018-09-10T05:51:59.467Z,100411.17
2018-09-10T05:54:28.786Z,100411.80
2018-09-10T05:56:58.968Z,100405.76
2018-09-10T05:59:28.283Z,100415.19
2018-09-10T06:01:57.675Z,100420.41
2018-09-10T06:04:27.279Z,100429.84
2018-09-10T06:06:59.079Z,100413.73
2018-09-10T06:09:29.448Z,100410.67
2018-09-10T06:11:58.917Z,100423.03
2018-09-10T06:14:28.483Z,100416.44
2018-09-10T06:16:59.042Z,100418.59
2018-09-10T06:19:28.495Z,100414.94
2018-09-10T06:21:58.878Z,100421.48
2018-09-10T06:24:28.340Z,100431.28
2018-09-10T06:26:58.623Z,100433.91
2018-09-10T06:29:29.753Z,100437.39
2018-09-10T06:31:59.105Z,100433.63
2018-09-10T06:34:28.618Z,100434.70
2018-09-10T06:36:58.040Z,100431.34
2018-09-10T06:39:28.609Z,100430.77
2018-09-10T06:41:57.994Z,100419.86
2018-09-10T06:44:27.354Z,100419.73
2018-09-10T06:46:56.787Z,100411.98
2018-09-10T06:49:26.111Z,100429.76
2018-09-10T06:51:56.659Z,100430.52
2018-09-10T06:54:26.043Z,100429.92
2018-09-10T06:56:55.439Z,100433.53
2018-09-10T06:59:25.038Z,100435.17
2018-09-10T07:01:54.444Z,100450.83
2018-09-10T07:04:24.406Z,100443.54
2018-09-10T07:06:53.759Z,100443.54
2018-09-10T07:09:24.528Z,100440.46
2018-09-10T07:11:53.908Z,100432.48
2018-09-10T07:14:24.232Z,100431.90
2018-09-10T07:16:53.571Z,100428.24
2018-09-10T07:19:23.099Z,100437.81
2018-09-10T07:21:52.710Z,100437.73
2018-09-10T07:24:23.336Z,100438.83
2018-09-10T07:26:52.685Z,100443.53
2018-09-10T07:29:22.986Z,100448.06
2018-09-10T07:31:52.475Z,100443.85
2018-09-10T07:34:22.826Z,100443.00
2018-09-10T07:36:53.427Z,100447.43
2018-09-10T07:39:25.347Z,100438.78
2018-09-10T07:41:56.424Z,100452.31
2018-09-10T07:44:26.789Z,100452.55
2018-09-10T07:46:56.212Z,100457.33
2018-09-10T07:49:26.283Z,100470.87
2018-09-10T07:51:55.693Z,100478.18
2018-09-10T07:54:32.752Z,100464.55
2018-09-10T07:57:03.862Z,100467.61
2018-09-10T07:59:33.604Z,100460.67
2018-09-10T08:02:03.114Z,100460.98
2018-09-10T08:04:32.651Z,100460.37
2018-09-10T08:07:02.151Z,100459.62
2018-09-10T08:09:31.549Z,100464.67
2018-09-10T08:12:01.092Z,100460.81
2018-09-10T08:14:31.058Z,100456.06
2018-09-10T08:17:01.044Z,100453.09
2018-09-10T08:19:30.396Z,100459.89
2018-09-10T08:22:01.761Z,100453.77
2018-09-10T08:24:32.627Z,100459.88
2018-09-10T08:27:02.376Z,100454.67
2018-09-10T08:29:31.930Z,100452.06
2018-09-10T08:32:01.340Z,100456.42
2018-09-10T08:34:33.750Z,100457.36
2018-09-10T08:37:05.503Z,100458.89
2018-09-10T08:39:35.892Z,100465.00
2018-09-10T08:42:05.407Z,100472.54
2018-09-10T08:44:35.480Z,100462.05
2018-09-10T08:47:04.984Z,100463.84
2018-09-10T08:49:34.315Z,100442.27
2018-09-10T08:52:04.732Z,100471.00
2018-09-10T08:54:35.609Z,100464.52
2018-09-10T08:57:07.742Z,100465.48
2018-09-10T08:59:38.184Z,100461.76
2018-09-10T09:02:07.847Z,100448.61
2018-09-10T09:04:37.600Z,100452.23
2018-09-10T09:07:07.028Z,100453.02
2018-09-10T09:09:36.630Z,100455.22
2018-09-10T09:12:06.241Z,100460.95
2018-09-10T09:14:35.573Z,100452.25
2018-09-10T09:17:05.863Z,100450.92
2018-09-10T09:19:35.874Z,100452.24
2018-09-10T09:22:07.516Z,100451.45
2018-09-10T09:24:37.238Z,100453.09
2018-09-10T09:27:06.841Z,100444.31
2018-09-10T09:29:38.161Z,100471.22
2018-09-10T09:32:09.496Z,100463.99
2018-09-10T09:34:44.155Z,100463.98
2018-09-10T09:37:19.464Z,100462.32
2018-09-10T09:39:54.802Z,100466.82
2018-09-10T09:42:29.947Z,100467.14
2018-09-10T09:45:07.255Z,100472.50
2018-09-10T09:47:38.521Z,100468.70
2018-09-10T09:50:08.337Z,100452.62
2018-09-10T09:52:39.340Z,100460.60
2018-09-10T09:55:08.753Z,100460.64
2018-09-10T09:57:38.222Z,100461.77
2018-09-10T10:00:14.521Z,100460.14
2018-09-10T10:02:49.017Z,100462.83
2018-09-10T10:05:18.423Z,100452.94
2018-09-10T10:07:50.419Z,100454.86
2018-09-10T10:10:21.531Z,100460.60
2018-09-10T10:12:52.310Z,100459.20
2018-09-10T10:15:25.889Z,100449.63
2018-09-10T10:17:59.532Z,100452.11
2018-09-10T10:20:29.568Z,100448.60
2018-09-10T10:23:01.411Z,100449.12
2018-09-10T10:25:31.377Z,100437.88
2018-09-10T10:28:02.969Z,100438.11
2018-09-10T10:30:33.329Z,100432.92
2018-09-10T10:33:03.312Z,100443.61
2018-09-10T10:35:33.544Z,100427.69
2018-09-10T10:38:03.154Z,100425.23
2018-09-10T10:40:35.536Z,100424.96
2018-09-10T10:43:04.976Z,100424.16
2018-09-10T10:45:35.039Z,100412.30
2018-09-10T10:48:05.956Z,100420.55
2018-09-10T10:50:35.279Z,100418.64
2018-09-10T10:53:06.925Z,100426.06
2018-09-10T10:55:37.305Z,100409.85
2018-09-10T10:58:06.731Z,100417.52
2018-09-10T11:00:37.634Z,100411.80
2018-09-10T11:03:09.145Z,100415.83
2018-09-10T11:05:39.367Z,100429.04
2018-09-10T11:08:08.723Z,100417.78
2018-09-10T11:13:03.571Z,100411.25
2018-09-10T11:15:32.994Z,100409.79
2018-09-10T11:18:04.276Z,100408.00
2018-09-10T11:20:35.485Z,100404.05
2018-09-10T11:23:04.830Z,100395.09
2018-09-10T11:25:36.085Z,100403.58
2018-09-10T11:28:06.562Z,100391.67
2018-09-10T11:30:37.175Z,100390.66
2018-09-10T11:33:07.584Z,100387.31
2018-09-10T11:35:45.613Z,100388.13
2018-09-10T11:38:15.095Z,100387.69
2018-09-10T11:40:45.324Z,100387.94
2018-09-10T11:43:15.675Z,100383.92
2018-09-10T11:45:45.079Z,100372.94
2018-09-10T11:48:16.323Z,100375.08
2018-09-10T11:51:01.356Z,100372.87
2018-09-10T11:53:33.323Z,100361.97
2018-09-10T11:56:03.674Z,100360.77
2018-09-10T11:58:38.234Z,100368.38
2018-09-10T12:01:08.601Z,100360.30
2018-09-10T12:03:38.732Z,100362.94
2018-09-10T12:06:09.069Z,100355.56
2018-09-10T12:08:40.231Z,100351.19
2018-09-10T12:11:09.673Z,100355.82
2018-09-10T12:13:41.268Z,100357.77
2018-09-10T12:16:11.714Z,100359.41
2018-09-10T12:18:43.563Z,100365.04
2018-09-10T12:21:15.139Z,100354.41
2018-09-10T12:23:45.521Z,100357.06
2018-09-10T12:26:15.956Z,100358.47
2018-09-10T12:28:48.573Z,100352.67
2018-09-10T12:31:21.571Z,100354.08
2018-09-10T12:33:53.618Z,100345.40
2018-09-10T12:36:24.478Z,100349.97
2018-09-10T12:38:54.772Z,100347.52
2018-09-10T12:41:28.924Z,100353.34
2018-09-10T12:43:59.226Z,100344.99
2018-09-10T12:46:29.585Z,100337.23
2018-09-10T12:49:00.324Z,100338.68
2018-09-10T12:51:30.749Z,100312.91
2018-09-10T12:54:02.197Z,100329.75
2018-09-10T12:56:32.621Z,100333.52
2018-09-10T12:59:03.912Z,100329.38
2018-09-10T13:01:35.207Z,100326.69
2018-09-10T13:04:06.736Z,100325.08
2018-09-10T13:06:37.212Z,100323.59
2018-09-10T13:09:08.928Z,100316.81
2018-09-10T13:11:39.272Z,100311.63
2018-09-10T13:14:12.406Z,100314.64
2018-09-10T13:16:43.505Z,100315.98
2018-09-10T13:19:21.003Z,100255.58
2018-09-10T13:21:54.132Z,100307.08
2018-09-10T13:24:24.599Z,100305.86
2018-09-10T13:26:55.165Z,100301.83
2018-09-10T13:29:26.425Z,100301.34
2018-09-10T13:31:58.218Z,100296.05
2018-09-10T13:34:30.211Z,100306.92
2018-09-10T13:37:01.373Z,100305.34
2018-09-10T13:39:33.435Z,100297.22
2018-09-10T13:42:04.623Z,100294.17
2018-09-10T13:44:36.085Z,100294.90
2018-09-10T13:47:07.223Z,100290.08
2018-09-10T13:49:39.212Z,100299.42
2018-09-10T13:52:12.202Z,100295.75
2018-09-10T13:54:44.419Z,100302.78
2018-09-10T13:57:17.411Z,100301.73
2018-09-10T14:03:26.531Z,100288.48
2018-09-10T14:05:59.447Z,100289.08
2018-09-10T14:08:30.613Z,100285.80
2018-09-10T14:11:01.216Z,100289.75
2018-09-10T14:13:31.480Z,100290.95
2018-09-10T14:16:04.882Z,100288.19
2018-09-10T14:18:35.296Z,100287.30
2018-09-10T14:21:06.295Z,100285.84
2018-09-10T14:23:37.855Z,100284.53
2018-09-10T14:26:08.594Z,100289.03
2018-09-10T14:28:39.871Z,100280.38
2018-09-10T14:31:11.743Z,100273.36
2018-09-10T14:33:42.721Z,100275.20
2018-09-10T14:36:13.816Z,100274.52
2018-09-10T14:38:45.879Z,100268.41
2018-09-10T14:41:17.280Z,100265.20
2018-09-10T14:43:49.148Z,100268.26
2018-09-10T14:46:21.212Z,100260.02
2018-09-10T14:48:52.420Z,100257.81
2018-09-10T14:51:24.273Z,100252.48
2018-09-10T14:53:55.471Z,100261.14
2018-09-10T14:56:27.460Z,100255.44
2018-09-10T14:58:58.577Z,100253.87
2018-09-10T15:01:30.540Z,100245.81
2018-09-10T15:04:01.664Z,100249.61
2018-09-10T15:06:33.430Z,100238.22
2018-09-10T15:09:07.390Z,100242.11
2018-09-10T15:11:38.531Z,100243.09
2018-09-10T15:14:09.677Z,100248.17
2018-09-10T15:16:41.279Z,100247.40
2018-09-10T15:19:12.660Z,100245.88
2018-09-10T15:21:44.906Z,100244.62
2018-09-10T15:24:16.263Z,100244.81
2018-09-10T15:26:50.552Z,100241.22
2018-09-10T15:29:21.671Z,100234.30
2018-09-10T15:31:53.382Z,100230.64
2018-09-10T15:34:23.654Z,100223.77
2018-09-10T15:36:55.212Z,100234.63
2018-09-10T15:39:26.447Z,100232.10
2018-09-10T15:41:56.741Z,100242.59
2018-09-10T15:44:28.819Z,100227.89
2018-09-10T15:47:00.967Z,100161.77
2018-09-10T15:49:33.637Z,100230.58
2018-09-10T15:52:05.585Z,100241.28
2018-09-10T15:54:35.955Z,100242.94
2018-09-10T15:57:13.525Z,100207.56
2018-09-10T15:59:44.671Z,100237.50
2018-09-10T16:02:15.772Z,100238.40
2018-09-10T16:04:47.311Z,100237.39
2018-09-10T16:07:18.927Z,100252.20
2018-09-10T16:09:49.381Z,100252.80
2018-09-10T16:12:20.530Z,100240.31
2018-09-10T16:14:51.464Z,100252.73
2018-09-10T16:17:23.370Z,100245.03
2018-09-10T16:19:56.407Z,100254.53
2018-09-10T16:22:27.791Z,100247.84
2018-09-10T16:24:58.099Z,100259.06
2018-09-10T16:27:28.595Z,100266.23
2018-09-10T16:30:00.833Z,100268.52
2018-09-10T16:32:33.095Z,100261.25
2018-09-10T16:35:04.746Z,100272.17
2018-09-10T16:37:38.519Z,100277.76
2018-09-10T16:40:08.874Z,100254.09
2018-09-10T16:42:39.393Z,100278.64
2018-09-10T16:45:12.707Z,100281.35
2018-09-10T16:47:44.779Z,100278.76
2018-09-10T16:50:16.560Z,100286.44
2018-09-10T16:52:46.840Z,100287.42
2018-09-10T16:55:18.605Z,100294.59
2018-09-10T16:57:49.713Z,100288.55
2018-09-10T17:00:22.612Z,100280.36
2018-09-10T17:02:53.396Z,100300.06
2018-09-10T17:05:27.580Z,100296.20
2018-09-10T17:07:59.398Z,100300.92
2018-09-10T17:10:31.158Z,100306.53
2018-09-10T17:13:04.070Z,100305.95
2018-09-10T17:15:34.483Z,100301.22
2018-09-10T17:18:05.544Z,100301.22
2018-09-10T17:20:38.205Z,100293.84
2018-09-10T17:23:11.285Z,100302.30
2018-09-10T17:25:41.584Z,100304.58
2018-09-10T17:28:12.771Z,100303.23
2018-09-10T17:30:44.735Z,100301.75
2018-09-10T17:33:15.332Z,100290.00
2018-09-10T17:35:49.194Z,100289.66
2018-09-10T17:38:20.615Z,100294.27
2018-09-10T17:40:51.876Z,100292.96
2018-09-10T17:43:23.830Z,100297.68
2018-09-10T17:45:54.194Z,100300.03
2018-09-10T17:48:26.842Z,100313.25
2018-09-10T17:50:58.572Z,100307.78
2018-09-10T17:53:30.416Z,100305.95
2018-09-10T17:56:07.081Z,100308.66
2018-09-10T17:58:37.387Z,100314.33
2018-09-10T18:01:08.519Z,100313.64
2018-09-10T18:03:40.936Z,100312.93
2018-09-10T18:06:12.048Z,100318.25
2018-09-10T18:08:44.024Z,100320.25
2018-09-10T18:11:14.292Z,100317.50
2018-09-10T18:13:45.408Z,100324.09
2018-09-10T18:16:17.691Z,100329.08
2018-09-10T18:18:48.675Z,100324.75
2018-09-10T18:21:47.400Z,100336.19
2018-09-10T18:24:19.776Z,100334.97
2018-09-10T18:26:50.130Z,100338.36
2018-09-10T18:29:22.539Z,100339.75
2018-09-10T18:31:54.536Z,100346.75
2018-09-10T18:34:27.355Z,100344.31
2018-09-10T18:37:03.079Z,100348.48
2018-09-10T18:39:33.780Z,100361.14
2018-09-10T18:42:06.630Z,100354.01
2018-09-10T18:44:41.457Z,100373.01
2018-09-10T18:47:14.174Z,100381.55
2018-09-10T18:49:44.491Z,100386.80
2018-09-10T18:52:17.485Z,100392.80
2018-09-10T18:54:49.181Z,100387.06
2018-09-10T18:57:21.487Z,100390.33
2018-09-10T18:59:51.837Z,100400.16
2018-09-10T19:02:22.647Z,100407.81
2018-09-10T19:04:54.455Z,100410.75
2018-09-10T19:07:26.406Z,100419.98
2018-09-10T19:09:57.595Z,100428.16
2018-09-10T19:12:34.864Z,100431.74
2018-09-10T19:15:08.334Z,100438.35
2018-09-10T19:17:40.311Z,100434.70
2018-09-10T19:20:13.809Z,100440.13
2018-09-10T19:22:46.465Z,100446.98
2018-09-10T19:25:19.536Z,100442.24
2018-09-10T19:27:52.955Z,100437.27
2018-09-10T19:30:28.010Z,100444.07
2018-09-10T19:33:00.962Z,100459.88
2018-09-10T19:35:33.219Z,100462.86
2018-09-10T19:38:08.292Z,100469.41
2018-09-10T19:40:41.906Z,100471.27
2018-09-10T19:43:15.999Z,100468.72
2018-09-10T19:45:48.173Z,100468.33
2018-09-10T19:48:20.628Z,100475.12
2018-09-10T19:50:53.015Z,100471.45
2018-09-10T19:53:23.464Z,100465.33
2018-09-10T19:55:59.330Z,100472.08
2018-09-10T19:58:32.109Z,100467.81
2018-09-10T20:01:04.811Z,100463.20
2018-09-10T20:03:35.703Z,100470.15
2018-09-10T20:06:06.803Z,100464.45
2018-09-10T20:08:38.752Z,100472.38
2018-09-10T20:11:14.987Z,100454.03
2018-09-10T20:13:46.982Z,100454.88
2018-09-10T20:16:19.953Z,100462.16
2018-09-10T20:18:51.355Z,100461.98
2018-09-10T20:21:22.430Z,100461.80
2018-09-10T20:23:53.189Z,100458.00
2018-09-10T20:26:24.955Z,100459.59
2018-09-10T20:28:55.811Z,100454.61
2018-09-10T20:31:27.566Z,100442.23
2018-09-10T20:34:05.388Z,100451.88
2018-09-10T20:36:37.388Z,100467.14
2018-09-10T20:39:14.104Z,100459.50
2018-09-10T20:41:45.687Z,100463.57
2018-09-10T20:44:20.920Z,100469.81
2018-09-10T20:46:51.656Z,100374.76
2018-09-10T20:49:23.997Z,100470.56
2018-09-10T20:51:58.702Z,100465.69
2018-09-10T20:54:31.464Z,100471.34
2018-09-10T20:57:03.144Z,100467.69
2018-09-10T20:59:33.460Z,100459.19
2018-09-10T21:02:04.554Z,100446.98
2018-09-10T21:04:36.653Z,100451.89
2018-09-10T21:07:06.961Z,100448.09
2018-09-10T21:09:37.168Z,100448.00
2018-09-10T21:12:07.367Z,100447.47
2018-09-10T21:14:39.276Z,100448.66
2018-09-10T21:17:09.719Z,100444.03
2018-09-10T21:19:42.215Z,100444.83
2018-09-10T21:22:13.232Z,100446.27
2018-09-10T21:24:46.354Z,100456.95
2018-09-10T21:27:16.319Z,100466.81
2018-09-10T21:29:48.294Z,100480.24
2018-09-10T21:32:22.780Z,100457.17
2018-09-10T21:34:54.687Z,100477.83
2018-09-10T21:37:24.984Z,100472.44
2018-09-10T21:39:56.906Z,100464.41
2018-09-10T21:42:27.335Z,100468.80
2018-09-10T21:44:58.135Z,100477.77
2018-09-10T21:47:28.577Z,100484.95
2018-09-10T21:49:59.937Z,100482.96
2018-09-10T21:52:30.595Z,100478.66
2018-09-10T21:55:01.693Z,100490.67
2018-09-10T21:57:31.959Z,100497.31
2018-09-10T22:00:02.440Z,100494.77
2018-09-10T22:02:31.846Z,100392.86
2018-09-10T22:05:03.367Z,100494.08
2018-09-10T22:07:33.755Z,100501.37
2018-09-10T22:10:05.866Z,100507.41
2018-09-10T22:12:35.704Z,100505.16
2018-09-10T22:15:07.021Z,100501.75
2018-09-10T22:17:37.803Z,100510.46
2018-09-10T22:20:10.539Z,100505.89
2018-09-10T22:22:41.925Z,100513.27
2018-09-10T22:25:13.284Z,100517.49
2018-09-10T22:27:44.492Z,100528.76
2018-09-10T22:30:18.889Z,100526.50
2018-09-10T22:32:50.727Z,100526.39
2018-09-10T22:35:22.660Z,100532.08
2018-09-10T22:37:52.224Z,100534.03
2018-09-10T22:40:22.492Z,100528.44
2018-09-10T22:42:53.533Z,100520.00
2018-09-10T22:45:25.251Z,100525.01
2018-09-10T22:47:54.583Z,100507.54
2018-09-10T22:50:25.279Z,100474.87
2018-09-10T22:52:54.845Z,100513.91
2018-09-10T22:55:25.309Z,100504.02
2018-09-10T22:57:55.592Z,100497.25
2018-09-10T23:00:27.408Z,100503.59
2018-09-10T23:02:56.795Z,100501.14
2018-09-10T23:05:28.107Z,100507.72
2018-09-10T23:07:58.373Z,100509.98
2018-09-10T23:10:31.340Z,100504.14
2018-09-10T23:13:02.494Z,100479.28
2018-09-10T23:15:32.769Z,100495.97
2018-09-10T23:18:04.277Z,100497.48
2018-09-10T23:20:34.682Z,100496.27
2018-09-10T23:23:04.914Z,100490.61
2018-09-10T23:25:34.268Z,100484.35
2018-09-10T23:28:04.676Z,100492.05
2018-09-10T23:30:35.002Z,100496.20
2018-09-10T23:33:05.332Z,100497.03
2018-09-10T23:35:35.565Z,100494.17
2018-09-10T23:38:05.827Z,100496.30
2018-09-10T23:40:36.942Z,100497.20
2018-09-10T23:43:07.543Z,100497.05
2018-09-10T23:45:37.971Z,100501.19
2018-09-10T23:48:08.452Z,100504.42
2018-09-10T23:50:38.735Z,100516.20
2018-09-10T23:53:08.874Z,100500.38
2018-09-10T23:55:40.133Z,100508.73
2018-09-10T23:58:10.361Z,100402.59
